Airfield :
LOGIN :

Register | Disclaimer

   EN    FR    IT 

 










Legend :    VFR   Marginal VFR   IFR   Intensive IFR   Very Intensive IFR
Visi :
Ceiling :
>= 8 km
>= 3000ft
5 to 8 km
1000 to 3000 ft
1500m to 5 km
500 to 1000 ft
800 to 1500m
200 to 500 ft
< 800m
< 200 ft
Symbols :   Thunderstorms  Fog  Heavy snow  Heavy precipitations  Wind > 20 kt
SIGMETs :     Misc.  Thunderstorms  Icing  Turbulence  Mountain Waves  Volcanic Ashes






- Airport Elevation : 26 ft
- IATA code : GLA


EGPF - Glasgow

CURRENT METAR :
  • 270450Z AUTO 25006KT 9999 FEW019 BKN023 00/M01 Q0996

EXPIRED METARs :
  • 270420Z AUTO 24004KT 9999 FEW026 M00/M01 Q0996
  • 270350Z AUTO 25007KT 9999 NCD 01/M00 Q0996
  • 270320Z AUTO 24006KT 9999 NCD 01/00 Q0996
  • 270250Z AUTO 22008KT 9999 -RA FEW024 SCT048 01/00 Q0996
  • 270220Z AUTO 23006KT 9999 SCT021 BKN028 BKN043 01/00 Q0996

TAF TAF EGPF
Valid from the 27 at 00:00 until the 28 at 00:00 UTC


262301Z 2700/2724 24009KT 9999 FEW010 SCT025
TEMPO 2700/2721 25015G25KT 6000 SHRA SHRASN BKN012CB
PROB30
TEMPO 2700/2715 1200 SHSN BKN005
ATIS : +44 141 887 7449



MET'MAP, your aeronautical weather chart ! - Copyright ORBIFLY December 2007 - Disclaimer

ORBIFLY MET'MAP TEAM :

Programming & Development : Alexandra Zaïnal
Concept & original design : Baudouin d'Aumeries
Assistance for programming : Marc-Olivier Méhu
Technical & hardware support : Manuel Goepfert

Contact : metmap@orbifly.com




SOURCES & CREDITS :

   NOAA